Time;durP1;ratioP1;P1;durP2;ratioP2;P2;SDS_P1;SDS_P2;PMS_P1;PMS_P2;Temp;Humidity;BMP_temperature;BMP_pressure;BME280_temperature;BME280_humidity;BME280_pressure;Samples;Min_cycle;Max_cycle;Signal;HPM_P1;HPM_P2
2022/05/05 00:02:07;;;;;;;23.08;12.07;;;;;;;9.96;97.14;99857.81;5084337;28;20059;-52
2022/05/05 00:04:52;;;;;;;18.77;10.45;;;;;;;9.90;98.56;99857.09;5083601;28;20048;-52
2022/05/05 00:07:36;;;;;;;19.58;10.68;;;;;;;9.94;97.27;99863.97;5083101;28;20048;-52
2022/05/05 00:16:27;;;;;;;19.65;9.98;;;;;;;9.57;100.00;99856.91;5084186;28;19924;-52
2022/05/05 00:19:12;;;;;;;21.90;10.27;;;;;;;9.64;100.00;99865.47;5085323;28;20056;-52
2022/05/05 00:21:57;;;;;;;16.25;9.48;;;;;;;9.67;99.93;99871.50;5084716;28;20052;-51
2022/05/05 00:24:41;;;;;;;16.08;9.25;;;;;;;9.66;100.00;99868.94;5084797;28;20056;-52
2022/05/05 00:27:25;;;;;;;15.75;9.07;;;;;;;9.52;100.00;99872.69;5084617;28;20047;-53
2022/05/05 00:30:10;;;;;;;21.40;11.05;;;;;;;9.32;100.00;99880.03;5082604;28;20043;-53
2022/05/05 00:32:55;;;;;;;19.88;10.88;;;;;;;9.33;100.00;99864.34;5085127;28;20060;-51
2022/05/05 00:35:39;;;;;;;20.40;11.10;;;;;;;9.40;100.00;99869.44;5084395;28;20056;-52
2022/05/05 00:38:24;;;;;;;17.77;11.40;;;;;;;9.21;100.00;99861.09;5083513;28;20470;-52
2022/05/05 00:41:09;;;;;;;18.33;10.30;;;;;;;9.38;100.00;99866.00;5083412;28;20055;-51
2022/05/05 00:43:53;;;;;;;16.27;9.73;;;;;;;9.28;100.00;99868.78;5084366;28;20180;-52
2022/05/05 00:46:38;;;;;;;16.02;9.60;;;;;;;9.13;100.00;99867.31;5083845;28;20043;-51
2022/05/05 00:49:22;;;;;;;19.90;9.40;;;;;;;9.20;100.00;99867.22;5084132;28;20577;-52
2022/05/05 00:52:07;;;;;;;14.02;8.68;;;;;;;9.25;100.00;99873.19;5083347;28;20482;-52
2022/05/05 00:54:52;;;;;;;14.57;9.38;;;;;;;9.17;100.00;99867.28;5083577;28;20048;-52
2022/05/05 00:57:37;;;;;;;15.23;9.38;;;;;;;9.13;100.00;99861.22;5082484;28;20051;-52
2022/05/05 01:00:21;;;;;;;15.95;9.27;;;;;;;9.10;100.00;99866.53;5083668;28;20060;-52
2022/05/05 01:03:11;;;;;;;13.45;8.25;;;;;;;9.06;100.00;99857.84;5082597;28;20121;-52
2022/05/05 01:05:57;;;;;;;12.52;8.43;;;;;;;8.97;100.00;99865.88;5080999;28;20052;-52
2022/05/05 01:08:43;;;;;;;16.45;8.75;;;;;;;8.98;100.00;99859.75;5082693;28;20052;-52
2022/05/05 01:11:29;;;;;;;14.63;8.75;;;;;;;8.97;100.00;99868.47;5083245;28;20059;-51
2022/05/05 01:14:15;;;;;;;15.77;9.57;;;;;;;8.96;100.00;99868.50;5082316;28;20056;-51
2022/05/05 01:16:59;;;;;;;17.70;9.60;;;;;;;8.87;100.00;99870.41;5082124;28;20044;-52
2022/05/05 01:19:44;;;;;;;15.07;9.55;;;;;;;8.80;100.00;99868.75;5082194;28;20040;-51
2022/05/05 01:22:28;;;;;;;14.13;9.60;;;;;;;8.76;100.00;99869.69;5082137;28;20051;-52
2022/05/05 01:28:16;;;;;;;16.25;9.20;;;;;;;8.60;100.00;99868.22;5082933;28;20052;-52
2022/05/05 01:31:02;;;;;;;13.60;8.20;;;;;;;8.60;100.00;99865.63;5082874;28;20036;-52
2022/05/05 01:33:47;;;;;;;13.40;9.25;;;;;;;8.57;100.00;99863.91;5083478;28;20048;-51
2022/05/05 01:36:31;;;;;;;13.30;8.35;;;;;;;8.51;100.00;99870.97;5081211;28;20048;-51
2022/05/05 01:39:15;;;;;;;15.27;8.73;;;;;;;8.49;100.00;99871.00;5080354;28;20051;-52
2022/05/05 01:42:00;;;;;;;13.68;8.48;;;;;;;8.43;100.00;99873.72;5079775;28;20064;-52
2022/05/05 01:44:44;;;;;;;18.10;9.15;;;;;;;8.38;100.00;99883.34;5079627;28;20047;-52
2022/05/05 01:47:29;;;;;;;12.77;8.85;;;;;;;8.29;100.00;99881.72;5077464;28;20474;-51
2022/05/05 01:50:13;;;;;;;12.38;8.07;;;;;;;8.28;100.00;99892.16;5079852;28;20036;-52
2022/05/05 01:52:59;;;;;;;15.75;9.02;;;;;;;8.20;100.00;99887.94;5080399;28;20118;-52
2022/05/05 01:55:44;;;;;;;12.65;8.60;;;;;;;8.18;100.00;99884.47;5080122;28;20063;-53
2022/05/05 01:58:29;;;;;;;15.88;9.93;;;;;;;8.18;100.00;99883.59;5080130;28;20494;-52
2022/05/05 02:01:13;;;;;;;12.77;8.20;;;;;;;8.15;100.00;99883.66;5081655;28;20048;-52
2022/05/05 02:04:00;;;;;;;13.70;8.65;;;;;;;8.13;100.00;99888.91;5081736;28;20421;-51
2022/05/05 02:06:44;;;;;;;15.20;10.07;;;;;;;7.99;100.00;99880.38;5082099;28;20048;-52
2022/05/05 02:09:30;;;;;;;16.27;9.57;;;;;;;8.05;100.00;99884.66;5081395;28;20036;-51
2022/05/05 02:12:15;;;;;;;13.70;8.68;;;;;;;8.12;100.00;99883.69;5081051;28;20410;-52
2022/05/05 02:15:00;;;;;;;13.77;8.48;;;;;;;8.00;100.00;99881.28;5082954;28;20051;-51
2022/05/05 02:17:44;;;;;;;15.10;8.68;;;;;;;8.00;100.00;99883.88;5081429;28;20047;-51
2022/05/05 02:20:30;;;;;;;17.42;8.93;;;;;;;7.99;100.00;99883.00;5080955;28;20055;-51
2022/05/05 02:23:15;;;;;;;17.75;9.82;;;;;;;7.87;100.00;99886.66;5081448;28;20487;-52
2022/05/05 02:26:00;;;;;;;14.65;8.93;;;;;;;7.88;100.00;99883.13;5081855;28;20044;-52
2022/05/05 02:28:44;;;;;;;18.88;9.73;;;;;;;7.80;100.00;99882.41;5081810;28;20051;-52
2022/05/05 02:31:31;;;;;;;13.45;9.10;;;;;;;7.79;100.00;99885.88;5081225;28;20059;-52
2022/05/05 02:34:16;;;;;;;13.90;9.27;;;;;;;7.66;100.00;99887.75;5082300;28;20509;-52
2022/05/05 02:40:04;;;;;;;12.85;9.80;;;;;;;7.60;100.00;99879.13;5081588;28;20056;-52
2022/05/05 02:42:49;;;;;;;13.35;10.85;;;;;;;7.67;100.00;99883.41;5081860;28;20044;-51
2022/05/05 02:45:34;;;;;;;15.38;10.43;;;;;;;7.66;100.00;99887.75;5082994;28;20044;-51
2022/05/05 02:48:19;;;;;;;17.30;11.60;;;;;;;7.60;100.00;99881.75;5082806;28;20048;-52
2022/05/05 02:51:03;;;;;;;18.35;11.68;;;;;;;7.57;100.00;99889.59;5082769;28;20949;-52
2022/05/05 02:56:51;;;;;;;15.63;10.57;;;;;;;7.56;100.00;99893.09;5087000;28;20059;-52
2022/05/05 02:59:36;;;;;;;20.77;12.25;;;;;;;7.36;100.00;99890.72;5085901;28;20394;-52
2022/05/05 03:02:20;;;;;;;20.85;12.77;;;;;;;7.30;100.00;99882.97;5085453;28;20133;-51
2022/05/05 03:05:05;;;;;;;21.00;15.02;;;;;;;7.41;100.00;99901.94;5086716;28;20043;-52
2022/05/05 03:07:49;;;;;;;19.90;11.15;;;;;;;7.44;100.00;99894.09;5085426;28;20118;-51
2022/05/05 03:10:34;;;;;;;23.63;12.57;;;;;;;7.35;100.00;99895.06;5085194;28;20052;-52
2022/05/05 03:13:18;;;;;;;20.15;13.35;;;;;;;7.40;100.00;99892.41;5085887;28;20059;-52
2022/05/05 03:16:04;;;;;;;16.77;11.55;;;;;;;7.46;100.00;99892.34;5084228;28;20434;-52
2022/05/05 03:18:49;;;;;;;24.13;12.27;;;;;;;7.40;100.00;99898.47;5083635;28;20171;-52
2022/05/05 03:21:33;;;;;;;23.35;12.27;;;;;;;7.38;100.00;99889.81;5083539;28;20051;-52
2022/05/05 03:24:18;;;;;;;21.90;12.40;;;;;;;7.36;100.00;99888.97;5083752;28;20052;-51
2022/05/05 03:27:04;;;;;;;17.50;11.38;;;;;;;7.42;100.00;99894.13;5082558;28;20052;-51
2022/05/05 03:29:49;;;;;;;19.42;11.52;;;;;;;7.45;100.00;99896.69;5084068;28;20050;-52
2022/05/05 03:32:33;;;;;;;18.40;10.77;;;;;;;7.48;100.00;99895.81;5083550;28;20446;-51
2022/05/05 03:35:18;;;;;;;19.67;11.90;;;;;;;7.50;100.00;99901.84;5085325;28;20044;-50
2022/05/05 03:38:02;;;;;;;18.13;12.35;;;;;;;7.48;100.00;99896.66;5084068;28;20048;-51
2022/05/05 03:40:47;;;;;;;22.33;12.40;;;;;;;7.42;100.00;99898.47;5084012;28;20431;-52
2022/05/05 03:43:32;;;;;;;15.65;11.73;;;;;;;7.47;100.00;99901.88;5085262;28;20052;-52
2022/05/05 03:46:16;;;;;;;17.65;10.38;;;;;;;7.56;100.00;99896.56;5085416;28;20070;-52
2022/05/05 03:49:01;;;;;;;18.42;11.65;;;;;;;7.62;100.00;99893.03;5083669;28;20056;-52
2022/05/05 03:51:46;;;;;;;20.50;13.27;;;;;;;7.65;100.00;99893.84;5082787;28;20669;-51
2022/05/05 03:54:31;;;;;;;18.88;12.57;;;;;;;7.73;100.00;99891.16;5083666;28;20494;-52
2022/05/05 03:57:15;;;;;;;17.88;11.70;;;;;;;7.78;100.00;99896.31;5083695;28;20051;-51
2022/05/05 04:00:00;;;;;;;25.55;15.63;;;;;;;7.62;100.00;99904.31;5082876;28;20058;-52
2022/05/05 04:03:30;;;;;;;23.40;15.52;;;;;;;7.52;100.00;99901.84;5082607;28;20127;-52
2022/05/05 04:05:48;;;;;;;23.40;14.88;;;;;;;7.79;100.00;99903.25;5083118;28;20048;-52
2022/05/05 04:08:33;;;;;;;17.90;13.20;;;;;;;7.89;100.00;99902.25;5082726;28;20048;-51
2022/05/05 04:11:18;;;;;;;20.48;13.77;;;;;;;8.06;100.00;99908.13;5083042;28;20394;-52
2022/05/05 04:14:03;;;;;;;21.83;13.48;;;;;;;8.31;100.00;99911.25;5083839;28;20152;-52
2022/05/05 04:16:48;;;;;;;20.27;13.02;;;;;;;8.79;100.00;99913.19;5081773;28;20044;-51
2022/05/05 04:19:32;;;;;;;26.10;16.80;;;;;;;8.87;100.00;99906.97;5083031;28;20048;-52
2022/05/05 04:22:17;;;;;;;27.65;16.85;;;;;;;9.60;100.00;99906.53;5083038;28;20498;-52
2022/05/05 04:25:02;;;;;;;23.63;14.68;;;;;;;10.22;100.00;99911.34;5082824;28;20478;-52
2022/05/05 04:27:47;;;;;;;18.77;13.00;;;;;;;10.93;100.00;99918.47;5082197;28;20101;-51
2022/05/05 04:30:31;;;;;;;21.45;14.23;;;;;;;11.54;100.00;99910.78;5081302;28;20103;-52
2022/05/05 04:33:16;;;;;;;25.08;15.43;;;;;;;11.59;100.00;99908.84;5079380;28;20066;-51
2022/05/05 04:36:00;;;;;;;27.05;15.82;;;;;;;11.97;100.00;99912.22;5079029;28;20037;-52
2022/05/05 04:38:45;;;;;;;24.80;15.73;;;;;;;12.06;98.20;99920.69;5079760;28;20487;-52
2022/05/05 04:41:29;;;;;;;27.63;15.65;;;;;;;11.99;97.86;99921.75;5090723;28;20064;-52
2022/05/05 04:44:14;;;;;;;22.25;15.95;;;;;;;12.07;96.04;99930.25;5090526;28;20447;-51
2022/05/05 04:46:59;;;;;;;22.13;14.57;;;;;;;13.46;93.83;99924.97;5082800;28;20043;-52
2022/05/05 04:49:43;;;;;;;23.17;15.05;;;;;;;14.40;87.09;99926.78;5086424;28;20052;-52
2022/05/05 04:52:27;;;;;;;25.55;14.95;;;;;;;15.17;82.03;99914.84;5083831;28;20056;-53
2022/05/05 04:55:12;;;;;;;22.92;14.95;;;;;;;15.65;78.75;99918.09;5080034;28;20056;-54
2022/05/05 04:57:56;;;;;;;21.15;13.95;;;;;;;16.45;75.47;99922.41;5079184;28;20056;-52
2022/05/05 05:00:41;;;;;;;20.27;13.63;;;;;;;16.96;72.66;99921.69;5079927;28;20048;-53
2022/05/05 05:03:39;;;;;;;21.08;13.13;;;;;;;17.46;69.44;99920.09;5083817;28;20405;-53
2022/05/05 05:06:24;;;;;;;20.75;13.98;;;;;;;17.93;66.87;99919.41;5082528;28;20140;-53
2022/05/05 05:09:08;;;;;;;22.23;14.13;;;;;;;18.37;63.81;99916.13;5083028;28;20048;-53
2022/05/05 05:11:53;;;;;;;17.13;13.20;;;;;;;18.78;61.51;99910.31;5082818;28;20048;-53
2022/05/05 05:14:37;;;;;;;19.40;14.70;;;;;;;19.24;60.32;99908.50;5082124;28;20052;-52
2022/05/05 05:17:21;;;;;;;20.48;13.10;;;;;;;19.67;57.21;99907.75;5082358;28;20055;-53
2022/05/05 05:20:06;;;;;;;20.65;13.38;;;;;;;19.89;56.10;99904.59;5083619;28;20387;-53
2022/05/05 05:22:51;;;;;;;18.73;13.18;;;;;;;20.29;55.56;99911.78;5081242;28;20062;-53
2022/05/05 05:25:35;;;;;;;19.35;11.98;;;;;;;20.66;54.32;99914.75;5081725;28;20335;-54
2022/05/05 05:28:20;;;;;;;18.98;11.85;;;;;;;20.86;53.52;99913.44;5080106;28;20135;-54
2022/05/05 05:31:04;;;;;;;15.18;12.75;;;;;;;21.33;52.07;99914.75;5079243;28;20047;-54
2022/05/05 05:33:49;;;;;;;21.50;12.98;;;;;;;21.68;51.05;99915.03;5079889;28;20383;-54
2022/05/05 05:36:34;;;;;;;21.55;12.13;;;;;;;21.77;50.10;99918.84;5082856;28;20097;-53
2022/05/05 05:39:18;;;;;;;20.75;13.00;;;;;;;21.87;49.05;99921.72;5082740;28;20040;-55
2022/05/05 05:42:04;;;;;;;18.80;12.38;;;;;;;22.00;48.99;99921.72;5083621;28;20052;-54
2022/05/05 05:44:48;;;;;;;17.08;11.88;;;;;;;22.09;47.96;99918.41;5084025;28;20056;-53
2022/05/05 05:47:32;;;;;;;24.35;13.30;;;;;;;22.25;48.16;99924.38;5083831;28;20048;-54
2022/05/05 05:50:18;;;;;;;19.35;12.63;;;;;;;22.15;48.39;99918.84;5084055;28;20052;-54
2022/05/05 05:53:02;;;;;;;21.30;13.07;;;;;;;22.66;47.89;99923.22;5083558;28;21014;-55
2022/05/05 05:55:47;;;;;;;19.05;12.25;;;;;;;22.67;47.07;99924.06;5081935;28;20040;-55
2022/05/05 05:58:35;;;;;;;24.63;13.65;;;;;;;22.87;45.31;99921.59;5083993;28;20387;-54
2022/05/05 06:01:20;;;;;;;23.02;13.50;;;;;;;23.16;45.88;99920.44;5084330;28;20052;-55
2022/05/05 06:04:05;;;;;;;22.52;13.20;;;;;;;23.24;44.12;99921.56;5084978;28;20060;-54
2022/05/05 06:06:50;;;;;;;28.73;13.77;;;;;;;23.24;45.86;99926.06;5083662;28;20052;-54
2022/05/05 06:09:34;;;;;;;23.45;12.93;;;;;;;23.65;45.87;99911.31;5082764;28;20845;-54
2022/05/05 06:12:19;;;;;;;22.38;12.52;;;;;;;23.88;45.14;99915.75;5084415;28;20055;-54
2022/05/05 06:15:04;;;;;;;27.95;14.98;;;;;;;23.28;45.94;99925.69;5085900;28;20051;-55
2022/05/05 06:17:49;;;;;;;26.13;13.45;;;;;;;24.01;45.16;99919.16;5086272;28;20721;-55
2022/05/05 06:20:34;;;;;;;19.00;12.48;;;;;;;24.11;43.59;99924.63;5085462;28;20039;-54
2022/05/05 06:23:19;;;;;;;22.88;13.65;;;;;;;24.20;43.29;99928.41;5086448;28;20056;-55
2022/05/05 06:26:05;;;;;;;19.95;11.45;;;;;;;24.27;41.59;99929.59;5085525;28;20048;-54
2022/05/05 06:28:50;;;;;;;17.55;11.90;;;;;;;24.54;42.44;99929.25;5088848;28;20051;-56
2022/05/05 06:31:34;;;;;;;16.98;11.15;;;;;;;24.76;42.06;99935.50;5089039;28;20036;-56
2022/05/05 06:34:19;;;;;;;16.88;11.05;;;;;;;24.95;42.39;99924.97;5088198;28;20367;-56
2022/05/05 06:37:05;;;;;;;17.95;10.75;;;;;;;25.15;41.83;99934.06;5083248;28;20101;-55
2022/05/05 06:39:50;;;;;;;15.50;11.32;;;;;;;24.92;41.82;99930.59;5089230;28;20405;-56
2022/05/05 06:42:35;;;;;;;13.43;10.60;;;;;;;25.24;41.21;99935.13;5086980;28;20135;-56
2022/05/05 06:45:20;;;;;;;19.65;11.30;;;;;;;25.57;40.70;99932.25;5089052;28;20044;-56
2022/05/05 06:48:05;;;;;;;15.98;10.98;;;;;;;25.48;41.01;99933.06;5088139;28;20039;-55
2022/05/05 06:50:49;;;;;;;18.50;10.85;;;;;;;25.21;41.16;99935.38;5086947;28;20505;-56
2022/05/05 06:53:33;;;;;;;19.02;11.05;;;;;;;25.76;41.40;99930.69;5086173;28;20117;-56
2022/05/05 06:56:18;;;;;;;17.23;10.93;;;;;;;26.10;40.90;99940.22;5085997;28;20044;-56
2022/05/05 06:59:02;;;;;;;17.33;11.32;;;;;;;25.81;41.34;99936.53;5087457;28;20044;-56
2022/05/05 07:01:54;;;;;;;17.67;10.95;;;;;;;26.45;40.93;99940.75;5082456;28;20056;-56
2022/05/05 07:07:42;;;;;;;16.55;11.63;;;;;;;26.19;41.29;99943.91;5085193;28;20052;-56
2022/05/05 07:13:29;;;;;;;29.73;12.32;;;;;;;26.68;39.40;99927.97;5085533;28;20052;-56
2022/05/05 07:16:14;;;;;;;20.67;11.40;;;;;;;26.55;39.77;99930.91;5084040;28;20048;-56
2022/05/05 07:18:59;;;;;;;17.80;11.18;;;;;;;26.72;40.07;99932.94;5085481;28;20048;-56
2022/05/05 07:21:44;;;;;;;15.73;10.50;;;;;;;26.88;39.77;99934.25;5082841;28;20583;-56
2022/05/05 07:24:32;;;;;;;18.63;11.15;;;;;;;27.16;39.11;99925.34;5084570;28;20051;-57
2022/05/05 07:27:16;;;;;;;17.42;11.50;;;;;;;27.46;39.17;99932.41;5086126;28;20048;-58
2022/05/05 07:30:01;;;;;;;17.40;11.02;;;;;;;27.68;38.92;99936.59;5087803;28;20375;-57
2022/05/05 07:32:46;;;;;;;14.93;11.38;;;;;;;27.80;37.39;99934.63;5087421;28;20260;-57
2022/05/05 07:35:30;;;;;;;16.05;10.52;;;;;;;28.01;37.54;99936.25;5086226;28;20056;-56
2022/05/05 07:38:15;;;;;;;16.65;10.82;;;;;;;28.39;37.10;99933.41;5087191;28;22204;-56
2022/05/05 07:40:59;;;;;;;14.70;11.35;;;;;;;27.87;37.28;99933.03;5086547;28;20498;-56
2022/05/05 07:43:43;;;;;;;14.20;9.95;;;;;;;27.90;36.93;99934.59;5088025;28;20071;-57
2022/05/05 07:46:28;;;;;;;18.15;12.27;;;;;;;28.20;36.09;99930.78;5088927;28;20101;-56
2022/05/05 07:49:13;;;;;;;15.40;10.10;;;;;;;28.57;35.86;99928.09;5088040;28;20147;-57
2022/05/05 07:51:57;;;;;;;17.60;10.27;;;;;;;28.56;35.37;99931.75;5087609;28;20052;-57
2022/05/05 07:54:44;;;;;;;26.70;10.68;;;;;;;28.68;34.93;99931.56;5087648;28;20471;-56
2022/05/05 07:57:29;;;;;;;11.80;9.32;;;;;;;28.79;35.22;99934.88;5088231;28;20052;-57
2022/05/05 08:00:13;;;;;;;15.38;9.95;;;;;;;28.65;34.96;99938.94;5088462;28;20059;-57
2022/05/05 08:02:58;;;;;;;11.80;8.85;;;;;;;28.89;34.42;99935.66;5088706;28;20418;-57
2022/05/05 08:05:42;;;;;;;15.55;9.35;;;;;;;28.72;34.48;99938.31;5087026;28;20055;-57
2022/05/05 08:08:27;;;;;;;15.77;8.48;;;;;;;28.92;33.81;99937.19;5086687;28;20047;-57
2022/05/05 08:11:11;;;;;;;10.15;8.77;;;;;;;28.70;34.05;99941.19;5086833;28;20056;-57
2022/05/05 08:13:56;;;;;;;11.63;8.93;;;;;;;28.64;33.04;99939.94;5086550;28;20067;-57
2022/05/05 08:16:40;;;;;;;11.50;9.30;;;;;;;28.47;34.30;99939.88;5087469;28;20868;-57
2022/05/05 08:19:25;;;;;;;10.48;7.70;;;;;;;28.59;33.78;99936.84;5086778;28;20044;-57
2022/05/05 08:22:09;;;;;;;10.00;8.75;;;;;;;28.61;33.06;99942.09;5086984;28;20044;-56
2022/05/05 08:31:01;;;;;;;13.38;7.68;;;;;;;28.69;33.01;99933.25;5085209;28;20069;-56
2022/05/05 08:33:46;;;;;;;9.18;7.53;;;;;;;28.11;33.69;99940.63;5087238;28;20047;-56
2022/05/05 08:36:31;;;;;;;11.98;7.85;;;;;;;28.22;33.69;99944.13;5084625;28;20048;-57
2022/05/05 08:39:15;;;;;;;7.53;6.82;;;;;;;28.30;32.83;99945.03;5085723;28;20052;-57
2022/05/05 08:42:02;;;;;;;8.48;7.68;;;;;;;27.61;32.80;99951.63;5084824;28;20051;-57
2022/05/05 08:44:46;;;;;;;8.50;7.38;;;;;;;28.01;33.75;99955.94;5085534;28;20105;-57
2022/05/05 08:47:33;;;;;;;9.30;8.10;;;;;;;27.79;32.84;99948.22;5086136;28;20044;-57
2022/05/05 08:50:19;;;;;;;8.73;6.70;;;;;;;27.78;32.46;99941.97;5086444;28;20513;-58
2022/05/05 08:53:05;;;;;;;9.38;6.18;;;;;;;28.00;32.78;99939.94;5085098;28;20040;-58
2022/05/05 08:55:49;;;;;;;8.90;6.35;;;;;;;27.85;32.52;99945.81;5078501;28;20478;-57
2022/05/05 08:58:34;;;;;;;8.80;7.25;;;;;;;27.96;32.86;99945.63;5083327;28;20043;-57
2022/05/05 09:01:18;;;;;;;10.82;7.03;;;;;;;27.80;33.14;99948.06;5083937;28;20059;-57
2022/05/05 09:04:04;;;;;;;11.48;6.38;;;;;;;27.79;31.96;99942.81;5086251;28;20044;-57
2022/05/05 09:06:51;;;;;;;9.65;6.43;;;;;;;27.72;32.36;99939.84;5086565;28;20394;-57
2022/05/05 09:09:36;;;;;;;8.38;6.38;;;;;;;27.86;33.17;99938.59;5085792;28;20047;-57
2022/05/05 09:12:22;;;;;;;7.45;6.47;;;;;;;27.85;31.72;99942.25;5085268;28;20055;-57
2022/05/05 09:15:10;;;;;;;8.63;6.20;;;;;;;27.84;32.12;99946.78;5084346;28;20044;-56
2022/05/05 09:17:55;;;;;;;10.90;6.95;;;;;;;26.94;31.14;99947.09;5084541;28;20052;-57
2022/05/05 09:20:41;;;;;;;14.77;6.88;;;;;;;26.94;32.82;99941.72;5083687;28;20453;-57
2022/05/05 09:23:32;;;;;;;9.15;6.20;;;;;;;27.47;32.18;99939.47;5085387;28;20044;-58
2022/05/05 09:26:26;;;;;;;9.10;7.22;;;;;;;27.27;33.11;99937.81;5084857;28;20044;-57
2022/05/05 09:29:19;;;;;;;10.88;6.60;;;;;;;27.49;32.22;99942.88;5086328;28;20040;-57
2022/05/05 09:32:13;;;;;;;8.48;6.68;;;;;;;27.16;31.63;99941.47;5086046;28;20052;-57
2022/05/05 09:35:09;;;;;;;8.25;5.60;;;;;;;26.92;31.89;99946.38;5087093;28;20044;-57
2022/05/05 09:37:54;;;;;;;7.18;6.47;;;;;;;27.32;31.93;99945.44;5086885;28;20055;-56
2022/05/05 09:40:38;;;;;;;8.45;6.82;;;;;;;27.56;32.00;99953.03;5084935;28;20051;-56
2022/05/05 09:43:27;;;;;;;7.38;6.10;;;;;;;27.38;32.57;99951.09;5078316;28;20067;-57
2022/05/05 09:46:27;;;;;;;11.63;6.38;;;;;;;25.82;33.22;99941.75;5086140;28;20043;-57
2022/05/05 09:49:14;;;;;;;8.50;5.97;;;;;;;26.82;33.01;99954.44;5084367;28;20044;-57
2022/05/05 09:58:15;;;;;;;8.30;6.25;;;;;;;27.66;32.29;99952.03;5067334;28;20139;-58
2022/05/05 10:01:05;;;;;;;9.43;6.13;;;;;;;28.07;32.09;99949.97;5082423;28;20032;-58
2022/05/05 10:04:03;;;;;;;11.38;7.20;;;;;;;27.86;30.36;99949.34;5083001;28;20056;-57
2022/05/05 10:06:48;;;;;;;9.30;5.70;;;;;;;27.93;31.60;99948.59;5083627;28;20048;-57
2022/05/05 10:09:33;;;;;;;7.18;5.60;;;;;;;28.14;31.16;99945.72;5082305;28;20562;-57
2022/05/05 10:12:19;;;;;;;7.75;6.95;;;;;;;28.02;30.79;99949.56;5080791;28;20040;-57
2022/05/05 10:15:04;;;;;;;7.35;5.97;;;;;;;28.28;31.40;99938.13;5082827;28;20044;-57
2022/05/05 10:17:50;;;;;;;7.18;6.25;;;;;;;27.53;30.08;99945.25;5082891;28;20044;-57
2022/05/05 10:20:35;;;;;;;7.35;4.40;;;;;;;28.05;30.00;99933.13;5081891;28;20044;-56
2022/05/05 10:23:30;;;;;;;8.48;5.80;;;;;;;28.23;29.71;99932.34;5081989;28;20075;-57
2022/05/05 10:26:20;;;;;;;6.40;4.70;;;;;;;28.32;28.62;99940.38;5083758;28;20068;-56
2022/05/05 10:29:31;;;;;;;9.27;5.22;;;;;;;28.36;30.41;99928.28;5081983;28;20060;-56
2022/05/05 10:32:24;;;;;;;7.82;6.00;;;;;;;28.20;30.04;99928.09;5077438;28;20056;-56
2022/05/05 10:35:12;;;;;;;8.35;7.10;;;;;;;26.86;30.11;99926.28;5082899;28;20522;-56
2022/05/05 10:37:57;;;;;;;6.80;4.95;;;;;;;27.07;30.33;99934.22;5080979;28;20139;-57
2022/05/05 10:40:46;;;;;;;8.80;6.45;;;;;;;26.96;32.04;99929.84;5081927;28;20044;-57
2022/05/05 10:43:34;;;;;;;8.00;6.38;;;;;;;27.25;31.74;99923.66;5082828;28;20044;-57
2022/05/05 10:46:50;;;;;;;7.18;5.15;;;;;;;27.01;32.00;99932.13;5083856;28;20799;-57
2022/05/05 10:49:34;;;;;;;10.90;9.20;;;;;;;25.88;31.99;99924.28;5083112;28;20151;-56
2022/05/05 10:52:22;;;;;;;11.15;6.55;;;;;;;25.85;32.26;99929.91;5083209;28;20056;-57
2022/05/05 10:55:43;;;;;;;9.20;5.95;;;;;;;25.65;32.26;99928.94;5083166;28;20040;-55
2022/05/05 10:59:02;;;;;;;7.47;5.32;;;;;;;25.31;32.10;99929.09;5083762;28;20542;-55
2022/05/05 11:01:46;;;;;;;8.80;6.88;;;;;;;25.13;31.93;99930.69;5082444;28;20052;-57
2022/05/05 11:04:32;;;;;;;4.65;4.22;;;;;;;25.82;31.93;99925.66;5083054;28;20093;-56
2022/05/05 11:07:19;;;;;;;6.55;5.72;;;;;;;25.32;31.65;99928.16;5084303;28;20044;-56
2022/05/05 11:10:06;;;;;;;5.43;4.47;;;;;;;26.03;32.41;99928.31;5083673;28;20056;-55
2022/05/05 11:12:51;;;;;;;5.45;4.60;;;;;;;25.73;31.36;99915.69;5083466;28;20037;-55
2022/05/05 11:21:53;;;;;;;6.10;3.95;;;;;;;26.74;29.53;99912.13;5085216;28;20418;-57
2022/05/05 11:24:38;;;;;;;5.65;4.57;;;;;;;26.83;30.26;99913.16;5085678;28;20060;-57
2022/05/05 11:27:25;;;;;;;8.55;4.97;;;;;;;26.97;29.50;99907.34;5085808;28;20444;-56
2022/05/05 11:30:14;;;;;;;6.65;4.07;;;;;;;26.73;29.80;99910.44;5085790;28;20048;-57
2022/05/05 11:33:00;;;;;;;5.00;3.90;;;;;;;26.97;30.11;99906.50;5085585;28;20056;-56
2022/05/05 11:36:02;;;;;;;6.15;4.03;;;;;;;26.97;29.08;99899.28;5085427;28;20048;-56
2022/05/05 11:38:46;;;;;;;8.38;4.78;;;;;;;26.88;29.68;99910.06;5086244;28;20044;-57
2022/05/05 11:41:31;;;;;;;5.60;4.05;;;;;;;26.64;30.75;99899.69;5084735;28;20052;-56
2022/05/05 11:44:17;;;;;;;5.85;5.20;;;;;;;26.34;29.84;99901.44;5085435;28;20584;-56
2022/05/05 11:47:16;;;;;;;7.85;4.60;;;;;;;26.43;30.67;99900.63;5083971;28;20043;-57
2022/05/05 11:50:00;;;;;;;5.38;3.65;;;;;;;26.87;30.88;99900.28;5086443;28;20056;-57
2022/05/05 11:52:45;;;;;;;3.83;3.40;;;;;;;27.05;30.78;99893.22;5085801;28;20093;-56
2022/05/05 11:55:30;;;;;;;7.82;3.63;;;;;;;27.22;31.53;99884.44;5086476;28;20063;-57
2022/05/05 12:01:36;;;;;;;5.32;4.00;;;;;;;27.55;29.57;99889.50;5085267;28;20123;-56
2022/05/05 12:01:37;;;;;;;7.03;3.47;;;;;;;27.64;28.77;99885.94;5085743;28;20052;-55
2022/05/05 12:04:22;;;;;;;3.90;3.50;;;;;;;27.74;28.86;99884.91;5086773;28;20044;-57
2022/05/05 12:07:09;;;;;;;4.30;2.85;;;;;;;28.02;29.04;99879.59;5086040;28;20051;-56
2022/05/05 12:09:55;;;;;;;4.05;3.25;;;;;;;28.00;28.72;99883.44;5087838;28;20068;-57
2022/05/05 12:12:49;;;;;;;4.22;3.30;;;;;;;27.87;28.06;99883.75;5084794;28;20051;-57
2022/05/05 12:15:33;;;;;;;3.35;2.90;;;;;;;27.75;27.54;99877.66;5084933;28;20194;-56
2022/05/05 12:18:18;;;;;;;3.50;2.95;;;;;;;27.78;28.37;99880.09;5083745;28;20052;-56
2022/05/05 12:21:03;;;;;;;5.65;3.30;;;;;;;27.66;28.24;99883.97;5083184;28;20059;-56
2022/05/05 12:24:03;;;;;;;4.72;2.50;;;;;;;27.66;29.89;99878.56;5083915;28;20097;-57
2022/05/05 12:26:49;;;;;;;4.50;2.55;;;;;;;27.86;28.06;99877.53;5083475;28;20052;-56
2022/05/05 12:29:41;;;;;;;3.03;2.72;;;;;;;27.73;28.10;99868.91;5081917;28;20056;-58
2022/05/05 12:32:26;;;;;;;4.88;3.03;;;;;;;27.25;28.20;99872.56;5072942;28;20048;-56
2022/05/05 12:35:11;;;;;;;2.85;2.53;;;;;;;26.99;28.33;99874.97;5081713;28;20048;-56
2022/05/05 12:37:57;;;;;;;3.70;3.05;;;;;;;26.88;29.09;99881.34;5081022;28;20044;-55
2022/05/05 12:40:46;;;;;;;5.22;2.70;;;;;;;26.52;28.55;99869.44;5080873;28;20048;-56
2022/05/05 12:43:30;;;;;;;4.65;2.75;;;;;;;26.71;29.26;99874.81;5080965;28;20055;-55
2022/05/05 12:46:16;;;;;;;3.67;3.03;;;;;;;27.14;29.10;99868.22;5081239;28;20098;-56
2022/05/05 12:49:01;;;;;;;5.25;3.13;;;;;;;27.39;29.15;99864.03;5079691;28;20093;-55
2022/05/05 12:51:48;;;;;;;9.80;5.25;;;;;;;27.46;30.04;99861.63;5080553;28;20422;-55
2022/05/05 13:00:39;;;;;;;4.47;2.90;;;;;;;27.73;29.53;99850.94;5080249;28;20051;-57
2022/05/05 13:03:24;;;;;;;6.05;3.03;;;;;;;27.73;28.88;99847.41;5081518;28;20048;-55
2022/05/05 13:06:11;;;;;;;5.72;2.42;;;;;;;27.39;27.63;99845.22;5080567;28;20036;-56
2022/05/05 13:08:56;;;;;;;3.83;2.35;;;;;;;27.45;27.77;99850.03;5078429;28;20056;-57
2022/05/05 13:11:44;;;;;;;3.42;2.53;;;;;;;27.16;28.16;99849.22;5080991;28;20079;-55
2022/05/05 13:14:29;;;;;;;3.90;2.75;;;;;;;26.56;27.68;99849.38;5079332;28;20503;-56
2022/05/05 13:17:14;;;;;;;3.28;2.47;;;;;;;26.56;27.67;99841.31;5084018;28;20086;-57
2022/05/05 13:19:58;;;;;;;5.07;3.58;;;;;;;26.97;27.39;99842.00;5083237;28;20167;-57
2022/05/05 13:22:42;;;;;;;5.80;2.70;;;;;;;26.98;28.51;99841.03;5080966;28;20062;-56
2022/05/05 13:25:27;;;;;;;5.95;3.45;;;;;;;27.20;27.43;99842.56;5083716;28;20398;-57
2022/05/05 13:28:12;;;;;;;2.50;2.30;;;;;;;26.77;29.47;99847.38;5082686;28;20075;-57
2022/05/05 13:30:58;;;;;;;7.70;2.95;;;;;;;26.89;29.53;99842.72;5081274;28;20040;-56
2022/05/05 13:33:42;;;;;;;2.55;2.30;;;;;;;26.75;29.09;99845.84;5083560;28;20047;-55
2022/05/05 13:36:27;;;;;;;3.60;2.95;;;;;;;25.84;29.41;99840.56;5083990;28;20070;-56
2022/05/05 13:39:12;;;;;;;3.90;2.63;;;;;;;26.68;29.69;99844.69;5082532;28;20090;-56